sensor_id;sensor_type;location;lat;lon;timestamp;P1;durP1;ratioP1;P2;durP2;ratioP2
45848;SDS011;31567;54.600;9.842;2023-08-31T00:02:41;23.17;;;21.08;;
45848;SDS011;31567;54.600;9.842;2023-08-31T00:06:22;17.17;;;15.60;;
45848;SDS011;31567;54.600;9.842;2023-08-31T00:10:01;16.27;;;14.68;;
45848;SDS011;31567;54.600;9.842;2023-08-31T00:13:48;15.48;;;14.10;;
45848;SDS011;31567;54.600;9.842;2023-08-31T00:17:27;14.55;;;12.88;;
45848;SDS011;31567;54.600;9.842;2023-08-31T00:21:08;11.75;;;10.43;;
45848;SDS011;31567;54.600;9.842;2023-08-31T00:24:48;10.73;;;9.65;;
45848;SDS011;31567;54.600;9.842;2023-08-31T00:28:27;8.77;;;8.02;;
45848;SDS011;31567;54.600;9.842;2023-08-31T00:32:07;9.70;;;8.80;;
45848;SDS011;31567;54.600;9.842;2023-08-31T00:35:47;8.18;;;7.38;;
45848;SDS011;31567;54.600;9.842;2023-08-31T00:39:27;7.93;;;7.18;;
45848;SDS011;31567;54.600;9.842;2023-08-31T00:43:06;7.30;;;6.60;;
45848;SDS011;31567;54.600;9.842;2023-08-31T00:46:46;7.55;;;6.78;;
45848;SDS011;31567;54.600;9.842;2023-08-31T00:50:26;7.13;;;6.53;;
45848;SDS011;31567;54.600;9.842;2023-08-31T00:54:05;6.97;;;6.38;;
45848;SDS011;31567;54.600;9.842;2023-08-31T00:57:45;7.07;;;6.18;;
45848;SDS011;31567;54.600;9.842;2023-08-31T01:01:27;8.18;;;6.53;;
45848;SDS011;31567;54.600;9.842;2023-08-31T01:13:33;5.72;;;4.30;;
45848;SDS011;31567;54.600;9.842;2023-08-31T01:17:14;5.22;;;4.53;;
45848;SDS011;31567;54.600;9.842;2023-08-31T01:24:59;5.47;;;3.90;;
45848;SDS011;31567;54.600;9.842;2023-08-31T01:28:43;3.83;;;3.03;;
45848;SDS011;31567;54.600;9.842;2023-08-31T01:32:23;4.25;;;2.55;;
45848;SDS011;31567;54.600;9.842;2023-08-31T01:36:03;4.25;;;3.08;;
45848;SDS011;31567;54.600;9.842;2023-08-31T01:39:52;2.55;;;2.35;;
45848;SDS011;31567;54.600;9.842;2023-08-31T01:43:35;4.10;;;2.80;;
45848;SDS011;31567;54.600;9.842;2023-08-31T01:47:15;3.53;;;2.60;;
45848;SDS011;31567;54.600;9.842;2023-08-31T01:50:58;7.43;;;4.15;;
45848;SDS011;31567;54.600;9.842;2023-08-31T01:54:39;6.03;;;2.88;;
45848;SDS011;31567;54.600;9.842;2023-08-31T01:58:18;3.70;;;3.10;;
45848;SDS011;31567;54.600;9.842;2023-08-31T02:01:58;6.75;;;3.90;;
45848;SDS011;31567;54.600;9.842;2023-08-31T02:05:37;5.75;;;4.15;;
45848;SDS011;31567;54.600;9.842;2023-08-31T02:09:17;6.78;;;4.20;;
45848;SDS011;31567;54.600;9.842;2023-08-31T02:12:56;5.53;;;3.72;;
45848;SDS011;31567;54.600;9.842;2023-08-31T02:16:36;5.57;;;4.07;;
45848;SDS011;31567;54.600;9.842;2023-08-31T02:20:15;5.35;;;3.72;;
45848;SDS011;31567;54.600;9.842;2023-08-31T02:23:55;5.18;;;4.47;;
45848;SDS011;31567;54.600;9.842;2023-08-31T02:27:35;6.13;;;4.25;;
45848;SDS011;31567;54.600;9.842;2023-08-31T02:31:16;6.60;;;4.85;;
45848;SDS011;31567;54.600;9.842;2023-08-31T02:34:57;5.00;;;4.60;;
45848;SDS011;31567;54.600;9.842;2023-08-31T02:38:36;5.53;;;5.00;;
45848;SDS011;31567;54.600;9.842;2023-08-31T02:42:16;5.78;;;5.25;;
45848;SDS011;31567;54.600;9.842;2023-08-31T02:45:59;5.53;;;4.97;;
45848;SDS011;31567;54.600;9.842;2023-08-31T02:49:41;5.53;;;4.63;;
45848;SDS011;31567;54.600;9.842;2023-08-31T02:53:21;4.57;;;4.18;;
45848;SDS011;31567;54.600;9.842;2023-08-31T02:57:00;4.97;;;4.40;;
45848;SDS011;31567;54.600;9.842;2023-08-31T03:00:41;4.95;;;4.13;;
45848;SDS011;31567;54.600;9.842;2023-08-31T03:04:21;4.32;;;3.92;;
45848;SDS011;31567;54.600;9.842;2023-08-31T03:08:01;4.40;;;4.10;;
45848;SDS011;31567;54.600;9.842;2023-08-31T03:11:41;4.13;;;3.72;;
45848;SDS011;31567;54.600;9.842;2023-08-31T03:15:20;4.57;;;3.72;;
45848;SDS011;31567;54.600;9.842;2023-08-31T03:19:00;4.60;;;3.60;;
45848;SDS011;31567;54.600;9.842;2023-08-31T03:22:39;3.58;;;2.85;;
45848;SDS011;31567;54.600;9.842;2023-08-31T03:26:19;9.52;;;3.20;;
45848;SDS011;31567;54.600;9.842;2023-08-31T03:29:58;5.20;;;2.75;;
45848;SDS011;31567;54.600;9.842;2023-08-31T03:33:38;6.95;;;2.70;;
45848;SDS011;31567;54.600;9.842;2023-08-31T03:37:17;4.65;;;2.10;;
45848;SDS011;31567;54.600;9.842;2023-08-31T03:40:58;3.88;;;2.20;;
45848;SDS011;31567;54.600;9.842;2023-08-31T03:44:38;4.70;;;2.30;;
45848;SDS011;31567;54.600;9.842;2023-08-31T03:48:18;3.17;;;1.80;;
45848;SDS011;31567;54.600;9.842;2023-08-31T03:51:57;2.80;;;1.50;;
45848;SDS011;31567;54.600;9.842;2023-08-31T03:55:37;1.98;;;1.35;;
45848;SDS011;31567;54.600;9.842;2023-08-31T03:59:16;2.78;;;1.35;;
45848;SDS011;31567;54.600;9.842;2023-08-31T04:02:57;3.35;;;1.38;;
45848;SDS011;31567;54.600;9.842;2023-08-31T04:06:37;1.40;;;1.08;;
45848;SDS011;31567;54.600;9.842;2023-08-31T04:10:16;2.50;;;1.83;;
45848;SDS011;31567;54.600;9.842;2023-08-31T04:13:58;1.88;;;1.67;;
45848;SDS011;31567;54.600;9.842;2023-08-31T04:17:37;2.33;;;1.98;;
45848;SDS011;31567;54.600;9.842;2023-08-31T04:21:17;5.13;;;2.30;;
45848;SDS011;31567;54.600;9.842;2023-08-31T04:24:57;4.32;;;3.53;;
45848;SDS011;31567;54.600;9.842;2023-08-31T04:28:37;3.95;;;3.30;;
45848;SDS011;31567;54.600;9.842;2023-08-31T04:32:16;5.00;;;4.50;;
45848;SDS011;31567;54.600;9.842;2023-08-31T04:35:56;10.55;;;6.63;;
45848;SDS011;31567;54.600;9.842;2023-08-31T04:39:35;8.35;;;6.60;;
45848;SDS011;31567;54.600;9.842;2023-08-31T04:43:15;12.48;;;7.43;;
45848;SDS011;31567;54.600;9.842;2023-08-31T04:46:54;7.53;;;6.80;;
45848;SDS011;31567;54.600;9.842;2023-08-31T04:50:34;7.57;;;6.18;;
45848;SDS011;31567;54.600;9.842;2023-08-31T04:54:13;8.88;;;6.60;;
45848;SDS011;31567;54.600;9.842;2023-08-31T04:57:53;8.25;;;6.68;;
45848;SDS011;31567;54.600;9.842;2023-08-31T05:01:33;7.97;;;6.72;;
45848;SDS011;31567;54.600;9.842;2023-08-31T05:05:13;10.27;;;7.95;;
45848;SDS011;31567;54.600;9.842;2023-08-31T05:08:52;9.73;;;7.15;;
45848;SDS011;31567;54.600;9.842;2023-08-31T05:12:32;12.18;;;7.50;;
45848;SDS011;31567;54.600;9.842;2023-08-31T05:16:11;9.30;;;7.60;;
45848;SDS011;31567;54.600;9.842;2023-08-31T05:19:51;9.32;;;7.28;;
45848;SDS011;31567;54.600;9.842;2023-08-31T05:23:30;9.68;;;7.15;;
45848;SDS011;31567;54.600;9.842;2023-08-31T05:27:10;11.63;;;7.13;;
45848;SDS011;31567;54.600;9.842;2023-08-31T05:30:50;10.52;;;6.95;;
45848;SDS011;31567;54.600;9.842;2023-08-31T05:34:35;10.27;;;6.30;;
45848;SDS011;31567;54.600;9.842;2023-08-31T05:38:18;8.77;;;6.40;;
45848;SDS011;31567;54.600;9.842;2023-08-31T05:41:57;6.80;;;6.10;;
45848;SDS011;31567;54.600;9.842;2023-08-31T05:45:37;6.65;;;5.95;;
45848;SDS011;31567;54.600;9.842;2023-08-31T05:49:16;8.25;;;5.50;;
45848;SDS011;31567;54.600;9.842;2023-08-31T05:52:56;7.78;;;5.25;;
45848;SDS011;31567;54.600;9.842;2023-08-31T05:56:36;11.75;;;5.20;;
45848;SDS011;31567;54.600;9.842;2023-08-31T06:00:15;4.97;;;4.30;;
45848;SDS011;31567;54.600;9.842;2023-08-31T06:03:56;4.70;;;3.53;;
45848;SDS011;31567;54.600;9.842;2023-08-31T06:07:35;7.40;;;3.58;;
45848;SDS011;31567;54.600;9.842;2023-08-31T06:11:15;3.58;;;3.03;;
45848;SDS011;31567;54.600;9.842;2023-08-31T06:14:54;6.72;;;3.42;;
45848;SDS011;31567;54.600;9.842;2023-08-31T06:18:34;4.28;;;2.40;;
45848;SDS011;31567;54.600;9.842;2023-08-31T06:22:14;4.05;;;2.47;;
45848;SDS011;31567;54.600;9.842;2023-08-31T06:25:53;3.20;;;2.40;;
45848;SDS011;31567;54.600;9.842;2023-08-31T06:29:33;3.50;;;2.88;;
45848;SDS011;31567;54.600;9.842;2023-08-31T06:33:15;4.65;;;2.50;;
45848;SDS011;31567;54.600;9.842;2023-08-31T06:36:56;5.43;;;2.65;;
45848;SDS011;31567;54.600;9.842;2023-08-31T06:40:37;5.07;;;2.05;;
45848;SDS011;31567;54.600;9.842;2023-08-31T06:44:17;7.65;;;2.35;;
45848;SDS011;31567;54.600;9.842;2023-08-31T06:47:56;5.68;;;2.10;;
45848;SDS011;31567;54.600;9.842;2023-08-31T06:51:36;6.13;;;1.75;;
45848;SDS011;31567;54.600;9.842;2023-08-31T06:55:16;3.90;;;1.52;;
45848;SDS011;31567;54.600;9.842;2023-08-31T06:58:55;1.95;;;1.20;;
45848;SDS011;31567;54.600;9.842;2023-08-31T07:02:36;4.95;;;1.17;;
45848;SDS011;31567;54.600;9.842;2023-08-31T07:06:18;4.18;;;1.13;;
45848;SDS011;31567;54.600;9.842;2023-08-31T07:09:58;2.20;;;0.95;;
45848;SDS011;31567;54.600;9.842;2023-08-31T07:13:37;2.30;;;0.60;;
45848;SDS011;31567;54.600;9.842;2023-08-31T07:17:17;2.92;;;0.80;;
45848;SDS011;31567;54.600;9.842;2023-08-31T07:20:58;3.03;;;0.82;;
45848;SDS011;31567;54.600;9.842;2023-08-31T07:24:37;2.88;;;0.70;;
45848;SDS011;31567;54.600;9.842;2023-08-31T07:28:17;2.30;;;0.60;;
45848;SDS011;31567;54.600;9.842;2023-08-31T07:31:57;1.75;;;0.52;;
45848;SDS011;31567;54.600;9.842;2023-08-31T07:35:36;1.13;;;0.40;;
45848;SDS011;31567;54.600;9.842;2023-08-31T07:39:17;2.40;;;0.38;;
45848;SDS011;31567;54.600;9.842;2023-08-31T07:42:56;2.05;;;0.43;;
45848;SDS011;31567;54.600;9.842;2023-08-31T07:46:36;3.25;;;0.40;;
45848;SDS011;31567;54.600;9.842;2023-08-31T07:50:15;0.80;;;0.65;;
45848;SDS011;31567;54.600;9.842;2023-08-31T07:53:55;3.35;;;1.02;;
45848;SDS011;31567;54.600;9.842;2023-08-31T07:57:35;1.45;;;0.65;;
45848;SDS011;31567;54.600;9.842;2023-08-31T08:01:14;2.20;;;0.73;;
45848;SDS011;31567;54.600;9.842;2023-08-31T08:04:54;1.95;;;0.60;;
45848;SDS011;31567;54.600;9.842;2023-08-31T08:08:33;4.05;;;0.80;;
45848;SDS011;31567;54.600;9.842;2023-08-31T08:12:13;2.78;;;0.60;;
45848;SDS011;31567;54.600;9.842;2023-08-31T08:15:52;2.67;;;0.47;;
45848;SDS011;31567;54.600;9.842;2023-08-31T08:19:32;2.25;;;0.63;;
45848;SDS011;31567;54.600;9.842;2023-08-31T08:23:11;5.88;;;0.60;;
45848;SDS011;31567;54.600;9.842;2023-08-31T08:26:51;5.32;;;0.65;;
45848;SDS011;31567;54.600;9.842;2023-08-31T08:30:30;0.77;;;0.60;;
45848;SDS011;31567;54.600;9.842;2023-08-31T08:34:10;2.65;;;0.65;;
45848;SDS011;31567;54.600;9.842;2023-08-31T08:37:49;1.95;;;0.50;;
45848;SDS011;31567;54.600;9.842;2023-08-31T08:41:29;3.03;;;0.60;;
45848;SDS011;31567;54.600;9.842;2023-08-31T08:45:12;1.63;;;0.45;;
45848;SDS011;31567;54.600;9.842;2023-08-31T08:48:56;0.73;;;0.52;;
45848;SDS011;31567;54.600;9.842;2023-08-31T08:52:39;1.30;;;0.20;;
45848;SDS011;31567;54.600;9.842;2023-08-31T08:56:19;1.98;;;0.40;;
45848;SDS011;31567;54.600;9.842;2023-08-31T08:59:59;1.30;;;1.02;;
45848;SDS011;31567;54.600;9.842;2023-08-31T09:03:38;3.70;;;0.77;;
45848;SDS011;31567;54.600;9.842;2023-08-31T09:07:19;2.63;;;0.70;;
45848;SDS011;31567;54.600;9.842;2023-08-31T09:10:58;3.58;;;1.23;;
45848;SDS011;31567;54.600;9.842;2023-08-31T09:14:38;5.22;;;3.58;;
45848;SDS011;31567;54.600;9.842;2023-08-31T09:18:31;6.07;;;5.47;;
45848;SDS011;31567;54.600;9.842;2023-08-31T09:22:11;7.25;;;6.20;;
45848;SDS011;31567;54.600;9.842;2023-08-31T09:25:51;5.85;;;5.30;;
45848;SDS011;31567;54.600;9.842;2023-08-31T09:29:32;5.30;;;4.97;;
45848;SDS011;31567;54.600;9.842;2023-08-31T09:33:15;4.25;;;3.88;;
45848;SDS011;31567;54.600;9.842;2023-08-31T09:36:56;5.80;;;5.30;;
45848;SDS011;31567;54.600;9.842;2023-08-31T09:40:43;4.75;;;4.35;;
45848;SDS011;31567;54.600;9.842;2023-08-31T09:44:23;4.97;;;2.80;;
45848;SDS011;31567;54.600;9.842;2023-08-31T09:48:03;3.17;;;0.85;;
45848;SDS011;31567;54.600;9.842;2023-08-31T09:51:48;3.55;;;0.70;;
45848;SDS011;31567;54.600;9.842;2023-08-31T09:55:29;1.15;;;0.45;;
45848;SDS011;31567;54.600;9.842;2023-08-31T09:59:11;1.73;;;0.43;;
45848;SDS011;31567;54.600;9.842;2023-08-31T10:02:52;1.75;;;0.40;;
45848;SDS011;31567;54.600;9.842;2023-08-31T10:06:35;2.28;;;0.55;;
45848;SDS011;31567;54.600;9.842;2023-08-31T10:10:17;5.20;;;0.70;;
45848;SDS011;31567;54.600;9.842;2023-08-31T10:13:57;2.50;;;0.47;;
45848;SDS011;31567;54.600;9.842;2023-08-31T10:17:39;2.85;;;0.50;;
45848;SDS011;31567;54.600;9.842;2023-08-31T10:21:19;4.38;;;0.60;;
45848;SDS011;31567;54.600;9.842;2023-08-31T10:28:39;5.40;;;0.80;;
45848;SDS011;31567;54.600;9.842;2023-08-31T10:32:19;0.40;;;0.40;;
45848;SDS011;31567;54.600;9.842;2023-08-31T10:36:00;3.33;;;0.75;;
45848;SDS011;31567;54.600;9.842;2023-08-31T10:39:40;1.73;;;0.40;;
45848;SDS011;31567;54.600;9.842;2023-08-31T10:43:20;2.17;;;0.65;;
45848;SDS011;31567;54.600;9.842;2023-08-31T10:47:00;1.48;;;0.30;;
45848;SDS011;31567;54.600;9.842;2023-08-31T10:50:43;2.92;;;0.30;;
45848;SDS011;31567;54.600;9.842;2023-08-31T10:54:26;1.60;;;0.30;;
45848;SDS011;31567;54.600;9.842;2023-08-31T10:58:16;1.65;;;0.60;;
45848;SDS011;31567;54.600;9.842;2023-08-31T11:01:56;0.60;;;0.32;;
45848;SDS011;31567;54.600;9.842;2023-08-31T11:05:51;1.40;;;0.40;;
45848;SDS011;31567;54.600;9.842;2023-08-31T11:09:31;0.55;;;0.45;;
45848;SDS011;31567;54.600;9.842;2023-08-31T11:13:15;3.30;;;0.63;;
45848;SDS011;31567;54.600;9.842;2023-08-31T11:20:39;2.08;;;0.40;;
45848;SDS011;31567;54.600;9.842;2023-08-31T11:24:19;1.75;;;0.60;;
45848;SDS011;31567;54.600;9.842;2023-08-31T11:28:01;0.77;;;0.25;;
45848;SDS011;31567;54.600;9.842;2023-08-31T11:31:44;1.10;;;0.50;;
45848;SDS011;31567;54.600;9.842;2023-08-31T11:35:24;0.38;;;0.32;;
45848;SDS011;31567;54.600;9.842;2023-08-31T11:39:15;2.45;;;0.20;;
45848;SDS011;31567;54.600;9.842;2023-08-31T11:42:57;2.95;;;0.55;;
45848;SDS011;31567;54.600;9.842;2023-08-31T11:46:39;0.80;;;0.32;;
45848;SDS011;31567;54.600;9.842;2023-08-31T11:50:21;1.38;;;0.30;;
45848;SDS011;31567;54.600;9.842;2023-08-31T11:54:03;0.82;;;0.28;;
45848;SDS011;31567;54.600;9.842;2023-08-31T11:57:49;0.30;;;0.30;;
45848;SDS011;31567;54.600;9.842;2023-08-31T12:01:33;1.33;;;0.22;;
45848;SDS011;31567;54.600;9.842;2023-08-31T12:05:17;0.73;;;0.30;;
45848;SDS011;31567;54.600;9.842;2023-08-31T12:08:56;1.30;;;0.30;;
45848;SDS011;31567;54.600;9.842;2023-08-31T12:12:37;0.28;;;0.17;;
45848;SDS011;31567;54.600;9.842;2023-08-31T12:16:17;0.70;;;0.35;;
45848;SDS011;31567;54.600;9.842;2023-08-31T12:20:03;1.40;;;0.20;;
45848;SDS011;31567;54.600;9.842;2023-08-31T12:23:44;2.10;;;0.50;;
45848;SDS011;31567;54.600;9.842;2023-08-31T12:27:23;1.45;;;0.40;;
45848;SDS011;31567;54.600;9.842;2023-08-31T12:31:03;1.48;;;0.40;;
45848;SDS011;31567;54.600;9.842;2023-08-31T12:34:44;0.30;;;0.30;;
45848;SDS011;31567;54.600;9.842;2023-08-31T12:38:23;0.77;;;0.50;;
45848;SDS011;31567;54.600;9.842;2023-08-31T12:42:03;1.33;;;0.47;;
45848;SDS011;31567;54.600;9.842;2023-08-31T12:45:43;0.68;;;0.30;;
45848;SDS011;31567;54.600;9.842;2023-08-31T12:49:23;0.22;;;0.22;;
45848;SDS011;31567;54.600;9.842;2023-08-31T12:53:02;2.60;;;0.50;;
45848;SDS011;31567;54.600;9.842;2023-08-31T12:56:42;2.92;;;0.50;;
45848;SDS011;31567;54.600;9.842;2023-08-31T13:00:22;1.05;;;0.30;;
45848;SDS011;31567;54.600;9.842;2023-08-31T13:04:02;1.17;;;0.47;;
45848;SDS011;31567;54.600;9.842;2023-08-31T13:07:42;1.23;;;0.40;;
45848;SDS011;31567;54.600;9.842;2023-08-31T13:11:21;0.50;;;0.40;;
45848;SDS011;31567;54.600;9.842;2023-08-31T13:15:02;0.55;;;0.40;;
45848;SDS011;31567;54.600;9.842;2023-08-31T13:18:42;0.95;;;0.57;;
45848;SDS011;31567;54.600;9.842;2023-08-31T13:22:22;1.55;;;0.60;;
45848;SDS011;31567;54.600;9.842;2023-08-31T13:26:02;1.58;;;0.52;;
45848;SDS011;31567;54.600;9.842;2023-08-31T13:29:42;2.90;;;0.55;;
45848;SDS011;31567;54.600;9.842;2023-08-31T13:33:22;0.60;;;0.60;;
45848;SDS011;31567;54.600;9.842;2023-08-31T13:37:02;0.60;;;0.50;;
45848;SDS011;31567;54.600;9.842;2023-08-31T13:40:43;3.13;;;0.50;;
45848;SDS011;31567;54.600;9.842;2023-08-31T13:44:22;0.68;;;0.45;;
45848;SDS011;31567;54.600;9.842;2023-08-31T13:48:02;1.85;;;0.50;;
45848;SDS011;31567;54.600;9.842;2023-08-31T13:51:43;1.13;;;0.50;;
45848;SDS011;31567;54.600;9.842;2023-08-31T13:55:24;0.60;;;0.60;;
45848;SDS011;31567;54.600;9.842;2023-08-31T13:59:04;0.77;;;0.40;;
45848;SDS011;31567;54.600;9.842;2023-08-31T14:02:44;4.15;;;0.90;;
45848;SDS011;31567;54.600;9.842;2023-08-31T14:06:24;1.27;;;0.40;;
45848;SDS011;31567;54.600;9.842;2023-08-31T14:10:03;1.45;;;0.80;;
45848;SDS011;31567;54.600;9.842;2023-08-31T14:13:46;2.35;;;0.60;;
45848;SDS011;31567;54.600;9.842;2023-08-31T14:17:26;0.95;;;0.60;;
45848;SDS011;31567;54.600;9.842;2023-08-31T14:21:06;0.70;;;0.40;;
45848;SDS011;31567;54.600;9.842;2023-08-31T14:24:53;2.65;;;0.80;;
45848;SDS011;31567;54.600;9.842;2023-08-31T14:28:32;1.77;;;0.75;;
45848;SDS011;31567;54.600;9.842;2023-08-31T14:32:12;1.35;;;0.70;;
45848;SDS011;31567;54.600;9.842;2023-08-31T14:35:52;1.60;;;0.70;;
45848;SDS011;31567;54.600;9.842;2023-08-31T14:39:32;3.75;;;0.80;;
45848;SDS011;31567;54.600;9.842;2023-08-31T14:43:11;4.97;;;1.13;;
45848;SDS011;31567;54.600;9.842;2023-08-31T14:46:51;2.40;;;1.05;;
45848;SDS011;31567;54.600;9.842;2023-08-31T14:50:31;2.10;;;0.88;;
45848;SDS011;31567;54.600;9.842;2023-08-31T14:54:11;1.83;;;0.80;;
45848;SDS011;31567;54.600;9.842;2023-08-31T14:57:51;0.68;;;0.68;;
45848;SDS011;31567;54.600;9.842;2023-08-31T15:01:30;2.85;;;0.70;;
45848;SDS011;31567;54.600;9.842;2023-08-31T15:05:10;1.77;;;0.60;;
45848;SDS011;31567;54.600;9.842;2023-08-31T15:08:49;2.05;;;0.60;;
45848;SDS011;31567;54.600;9.842;2023-08-31T15:12:29;3.55;;;0.65;;
45848;SDS011;31567;54.600;9.842;2023-08-31T15:16:08;1.08;;;0.70;;
45848;SDS011;31567;54.600;9.842;2023-08-31T15:19:50;0.93;;;0.80;;
45848;SDS011;31567;54.600;9.842;2023-08-31T15:23:30;1.00;;;0.88;;
45848;SDS011;31567;54.600;9.842;2023-08-31T15:27:10;4.20;;;1.00;;
45848;SDS011;31567;54.600;9.842;2023-08-31T15:30:49;1.67;;;0.73;;
45848;SDS011;31567;54.600;9.842;2023-08-31T15:34:29;2.05;;;0.68;;
45848;SDS011;31567;54.600;9.842;2023-08-31T15:38:09;1.15;;;0.57;;
45848;SDS011;31567;54.600;9.842;2023-08-31T15:41:49;0.80;;;0.40;;
45848;SDS011;31567;54.600;9.842;2023-08-31T15:45:35;1.52;;;0.57;;
45848;SDS011;31567;54.600;9.842;2023-08-31T15:49:15;0.35;;;0.20;;
45848;SDS011;31567;54.600;9.842;2023-08-31T15:52:54;0.57;;;0.30;;
45848;SDS011;31567;54.600;9.842;2023-08-31T15:56:35;1.17;;;0.45;;
45848;SDS011;31567;54.600;9.842;2023-08-31T16:00:15;1.38;;;0.77;;
45848;SDS011;31567;54.600;9.842;2023-08-31T16:03:58;1.27;;;0.65;;
45848;SDS011;31567;54.600;9.842;2023-08-31T16:07:38;1.55;;;0.40;;
45848;SDS011;31567;54.600;9.842;2023-08-31T16:11:19;1.60;;;0.60;;
45848;SDS011;31567;54.600;9.842;2023-08-31T16:15:01;1.98;;;0.77;;
45848;SDS011;31567;54.600;9.842;2023-08-31T16:18:41;2.45;;;0.73;;
45848;SDS011;31567;54.600;9.842;2023-08-31T16:22:21;3.88;;;0.73;;
45848;SDS011;31567;54.600;9.842;2023-08-31T16:26:01;3.72;;;0.50;;
45848;SDS011;31567;54.600;9.842;2023-08-31T16:29:41;1.73;;;0.80;;
45848;SDS011;31567;54.600;9.842;2023-08-31T16:33:21;3.28;;;0.80;;
45848;SDS011;31567;54.600;9.842;2023-08-31T16:37:00;3.28;;;0.68;;
45848;SDS011;31567;54.600;9.842;2023-08-31T16:40:40;3.63;;;0.73;;
45848;SDS011;31567;54.600;9.842;2023-08-31T16:44:21;1.70;;;0.70;;
45848;SDS011;31567;54.600;9.842;2023-08-31T16:48:01;2.95;;;0.60;;
45848;SDS011;31567;54.600;9.842;2023-08-31T16:51:41;3.25;;;0.70;;
45848;SDS011;31567;54.600;9.842;2023-08-31T16:55:20;2.80;;;0.80;;
45848;SDS011;31567;54.600;9.842;2023-08-31T16:59:00;1.90;;;0.90;;
45848;SDS011;31567;54.600;9.842;2023-08-31T17:02:40;2.78;;;0.63;;
45848;SDS011;31567;54.600;9.842;2023-08-31T17:06:20;3.25;;;0.60;;
45848;SDS011;31567;54.600;9.842;2023-08-31T17:09:59;2.17;;;1.02;;
45848;SDS011;31567;54.600;9.842;2023-08-31T17:13:40;2.63;;;0.65;;
45848;SDS011;31567;54.600;9.842;2023-08-31T17:17:20;2.85;;;0.60;;
45848;SDS011;31567;54.600;9.842;2023-08-31T17:21:04;1.95;;;0.80;;
45848;SDS011;31567;54.600;9.842;2023-08-31T17:24:43;6.13;;;0.90;;
45848;SDS011;31567;54.600;9.842;2023-08-31T17:28:23;2.78;;;0.70;;
45848;SDS011;31567;54.600;9.842;2023-08-31T17:32:03;2.78;;;0.68;;
45848;SDS011;31567;54.600;9.842;2023-08-31T17:35:42;1.92;;;0.80;;
45848;SDS011;31567;54.600;9.842;2023-08-31T17:39:22;0.80;;;0.60;;
45848;SDS011;31567;54.600;9.842;2023-08-31T17:43:01;0.80;;;0.73;;
45848;SDS011;31567;54.600;9.842;2023-08-31T17:46:41;1.65;;;0.50;;
45848;SDS011;31567;54.600;9.842;2023-08-31T17:50:21;2.50;;;0.70;;
45848;SDS011;31567;54.600;9.842;2023-08-31T17:54:00;1.52;;;0.65;;
45848;SDS011;31567;54.600;9.842;2023-08-31T17:57:40;1.83;;;0.50;;
45848;SDS011;31567;54.600;9.842;2023-08-31T18:01:23;1.25;;;0.70;;
45848;SDS011;31567;54.600;9.842;2023-08-31T18:05:02;3.50;;;0.73;;
45848;SDS011;31567;54.600;9.842;2023-08-31T18:08:42;1.13;;;0.75;;
45848;SDS011;31567;54.600;9.842;2023-08-31T18:12:25;0.60;;;0.38;;
45848;SDS011;31567;54.600;9.842;2023-08-31T18:16:04;0.88;;;0.60;;
45848;SDS011;31567;54.600;9.842;2023-08-31T18:19:44;1.45;;;0.68;;
45848;SDS011;31567;54.600;9.842;2023-08-31T18:23:24;2.00;;;0.95;;
45848;SDS011;31567;54.600;9.842;2023-08-31T18:27:04;1.95;;;0.70;;
45848;SDS011;31567;54.600;9.842;2023-08-31T18:30:52;1.75;;;0.80;;
45848;SDS011;31567;54.600;9.842;2023-08-31T18:34:37;3.55;;;0.90;;
45848;SDS011;31567;54.600;9.842;2023-08-31T18:38:18;3.17;;;0.95;;
45848;SDS011;31567;54.600;9.842;2023-08-31T18:41:58;3.55;;;0.75;;
45848;SDS011;31567;54.600;9.842;2023-08-31T18:45:43;1.30;;;0.60;;
45848;SDS011;31567;54.600;9.842;2023-08-31T18:49:22;2.30;;;0.75;;
45848;SDS011;31567;54.600;9.842;2023-08-31T18:53:02;1.67;;;0.73;;
45848;SDS011;31567;54.600;9.842;2023-08-31T18:56:42;1.98;;;1.30;;
45848;SDS011;31567;54.600;9.842;2023-08-31T19:00:22;2.33;;;1.20;;
45848;SDS011;31567;54.600;9.842;2023-08-31T19:04:01;3.72;;;1.13;;
45848;SDS011;31567;54.600;9.842;2023-08-31T19:07:42;3.45;;;1.40;;
45848;SDS011;31567;54.600;9.842;2023-08-31T19:11:22;3.08;;;1.52;;
45848;SDS011;31567;54.600;9.842;2023-08-31T19:15:01;3.15;;;1.48;;
45848;SDS011;31567;54.600;9.842;2023-08-31T19:18:42;3.30;;;1.38;;
45848;SDS011;31567;54.600;9.842;2023-08-31T19:22:21;3.42;;;1.55;;
45848;SDS011;31567;54.600;9.842;2023-08-31T19:26:01;3.58;;;1.67;;
45848;SDS011;31567;54.600;9.842;2023-08-31T19:29:42;3.63;;;1.60;;
45848;SDS011;31567;54.600;9.842;2023-08-31T19:33:23;3.53;;;1.70;;
45848;SDS011;31567;54.600;9.842;2023-08-31T19:37:03;3.00;;;1.80;;
45848;SDS011;31567;54.600;9.842;2023-08-31T19:40:42;2.45;;;1.60;;
45848;SDS011;31567;54.600;9.842;2023-08-31T19:44:23;5.00;;;1.63;;
45848;SDS011;31567;54.600;9.842;2023-08-31T19:48:04;5.03;;;1.85;;
45848;SDS011;31567;54.600;9.842;2023-08-31T19:51:44;2.55;;;1.80;;
45848;SDS011;31567;54.600;9.842;2023-08-31T19:55:23;4.95;;;1.63;;
45848;SDS011;31567;54.600;9.842;2023-08-31T19:59:03;3.50;;;1.70;;
45848;SDS011;31567;54.600;9.842;2023-08-31T20:02:42;6.60;;;1.60;;
45848;SDS011;31567;54.600;9.842;2023-08-31T20:06:22;3.97;;;1.60;;
45848;SDS011;31567;54.600;9.842;2023-08-31T20:10:02;4.28;;;1.80;;
45848;SDS011;31567;54.600;9.842;2023-08-31T20:13:43;4.70;;;1.67;;
45848;SDS011;31567;54.600;9.842;2023-08-31T20:17:22;2.92;;;1.67;;
45848;SDS011;31567;54.600;9.842;2023-08-31T20:21:02;3.05;;;1.50;;
45848;SDS011;31567;54.600;9.842;2023-08-31T20:24:43;3.88;;;1.75;;
45848;SDS011;31567;54.600;9.842;2023-08-31T20:28:22;3.15;;;1.90;;
45848;SDS011;31567;54.600;9.842;2023-08-31T20:32:02;4.35;;;2.08;;
45848;SDS011;31567;54.600;9.842;2023-08-31T20:35:43;6.30;;;2.63;;
45848;SDS011;31567;54.600;9.842;2023-08-31T20:39:22;1.80;;;1.70;;
45848;SDS011;31567;54.600;9.842;2023-08-31T20:43:07;2.70;;;1.80;;
45848;SDS011;31567;54.600;9.842;2023-08-31T20:46:47;4.13;;;2.10;;
45848;SDS011;31567;54.600;9.842;2023-08-31T20:50:27;4.45;;;2.10;;
45848;SDS011;31567;54.600;9.842;2023-08-31T20:54:07;3.33;;;1.95;;
45848;SDS011;31567;54.600;9.842;2023-08-31T20:57:46;6.72;;;1.90;;
45848;SDS011;31567;54.600;9.842;2023-08-31T21:01:26;2.20;;;1.80;;
45848;SDS011;31567;54.600;9.842;2023-08-31T21:05:05;5.30;;;1.90;;
45848;SDS011;31567;54.600;9.842;2023-08-31T21:08:45;4.15;;;1.77;;
45848;SDS011;31567;54.600;9.842;2023-08-31T21:12:25;4.28;;;2.03;;
45848;SDS011;31567;54.600;9.842;2023-08-31T21:16:04;3.63;;;1.73;;
45848;SDS011;31567;54.600;9.842;2023-08-31T21:19:44;6.32;;;2.00;;
45848;SDS011;31567;54.600;9.842;2023-08-31T21:23:24;4.78;;;1.90;;
45848;SDS011;31567;54.600;9.842;2023-08-31T21:27:05;3.10;;;1.83;;
45848;SDS011;31567;54.600;9.842;2023-08-31T21:30:45;7.13;;;1.85;;
45848;SDS011;31567;54.600;9.842;2023-08-31T21:34:24;4.82;;;1.85;;
45848;SDS011;31567;54.600;9.842;2023-08-31T21:38:04;4.13;;;1.80;;
45848;SDS011;31567;54.600;9.842;2023-08-31T21:41:44;4.70;;;1.80;;
45848;SDS011;31567;54.600;9.842;2023-08-31T21:45:24;4.85;;;1.83;;
45848;SDS011;31567;54.600;9.842;2023-08-31T21:49:03;5.03;;;2.05;;
45848;SDS011;31567;54.600;9.842;2023-08-31T21:52:43;2.63;;;1.58;;
45848;SDS011;31567;54.600;9.842;2023-08-31T21:56:23;4.28;;;2.05;;
45848;SDS011;31567;54.600;9.842;2023-08-31T22:00:02;7.78;;;1.90;;
45848;SDS011;31567;54.600;9.842;2023-08-31T22:03:43;3.10;;;1.85;;
45848;SDS011;31567;54.600;9.842;2023-08-31T22:07:23;3.40;;;1.73;;
45848;SDS011;31567;54.600;9.842;2023-08-31T22:11:04;4.63;;;1.90;;
45848;SDS011;31567;54.600;9.842;2023-08-31T22:14:45;3.80;;;2.05;;
45848;SDS011;31567;54.600;9.842;2023-08-31T22:18:25;3.47;;;1.60;;
45848;SDS011;31567;54.600;9.842;2023-08-31T22:22:06;4.07;;;1.98;;
45848;SDS011;31567;54.600;9.842;2023-08-31T22:25:46;4.47;;;1.95;;
45848;SDS011;31567;54.600;9.842;2023-08-31T22:29:25;3.03;;;1.90;;